MAPA DE AEROPUERTO

INFORMACIÓN METAR y TAF

METAR FOR UKBB
ADDS - METARS form results

(0433 UTC 22 June 2021)
Data provider http://aviationweather.gov/metar/data/
 
METAR text: UKBB 220430Z 06003MPS CAVOK 23/16 Q1013 R88/CLRD// NOSIG
Conditions at: UKBB (BORISPOL'/KIEV , UA) observed 0430 UTC 22 June 2021
Temperature: 23.0°C (73°F)
Dewpoint: 16.0°C (61°F) [RH = 65%]
Pressure (altimeter): 29.91 inches Hg (1013.0 mb)
Winds: from the ENE (60 degrees) at 7 MPH (6 knots; 3.1 m/s)
Visibility: 6 or more miles (10+ km)
Ceiling: ceiling and visibility are OK
Clouds: unknown
Weather: no significant weather observed at this time

METAR text: UKBB 220400Z 05002MPS 020V080 CAVOK 22/16 Q1013 R88/CLRD// NOSIG
Conditions at: UKBB (BORISPOL'/KIEV , UA) observed 0400 UTC 22 June 2021
Temperature: 22.0°C (72°F)
Dewpoint: 16.0°C (61°F) [RH = 69%]
Pressure (altimeter): 29.91 inches Hg (1013.0 mb)
Winds: from the NE (50 degrees) at 5 MPH (4 knots; 2.1 m/s)
Visibility: 6 or more miles (10+ km)
Ceiling: ceiling and visibility are OK
Clouds: unknown
Weather: no significant weather observed at this time

Forecast for: UKBB (BORISPOL'/KIEV , UA)
Text: TAF UKBB 212303Z 2200/2224 09003MPS 6000 SCT020 TX31/2212Z TN18/2202Z
Forecast period: 0000 to 0600 UTC 22 June 2021
Forecast type: FROM: standard forecast or significant change
Winds: from the E (90 degrees) at 7 MPH (6 knots; 3.1 m/s)
Visibility: 4 miles (6 km)
Ceiling: at least 12,000 feet AGL
Clouds: scattered clouds at 2000 feet AGL
Weather: no significant weather forecast for this period
Text: TEMPO 2200/2205 0400 FG VV002
Forecast period: 0000 to 0500 UTC 22 June 2021
Forecast type: TEMPORARY: The following changes expected for less than half the time period
Visibility: 0.25 miles (0.40 km)
Ceiling: indefinite ceiling with vertical visibility of 200 feet AGL
Clouds: obscured sky
Weather: FG  (fog)
Text: BECMG 2206/2208 10006G12MPS 9999 SCT030
Forecast period: 0600 to 1700 UTC 22 June 2021
Forecast type: BECOMING: Conditions expected to become as follows by 0800 UTC 22 June 2021
Winds: from the E (100 degrees) at 14 MPH (12 knots; 6.2 m/s)
gusting to 26 MPH (23 knots; 11.8 m/s)
Visibility: 6 or more miles (10+ km)
Ceiling: at least 12,000 feet AGL
Clouds: scattered clouds at 3000 feet AGL
Weather: no significant weather forecast for this period
Text: BECMG 2217/2219 09003MPS
Forecast period: 1700 UTC 22 June 2021 to 0000 UTC 23 June 2021
Forecast type: BECOMING: Conditions expected to become as follows by 1900 UTC 22 June 2021
Winds: from the E (90 degrees) at 7 MPH (6 knots; 3.1 m/s)
Visibility: 6 or more miles (10+ km)
Ceiling: at least 12,000 feet AGL
Clouds: scattered clouds at 3000 feet AGL
Weather: no significant weather forecast for this period